createdAt,value
2017-09-08T00:00:36.075Z,11.51
2017-09-08T00:03:01.863Z,11.57
2017-09-08T00:05:27.627Z,11.60
2017-09-08T00:07:53.390Z,11.62
2017-09-08T00:10:19.168Z,11.73
2017-09-08T00:12:44.986Z,11.52
2017-09-08T00:15:10.743Z,11.49
2017-09-08T00:17:36.994Z,11.57
2017-09-08T00:20:02.863Z,11.61
2017-09-08T00:22:29.435Z,11.63
2017-09-08T00:24:55.186Z,11.58
2017-09-08T00:27:20.963Z,11.56
2017-09-08T00:29:46.730Z,11.61
2017-09-08T00:32:12.508Z,11.67
2017-09-08T00:34:38.419Z,11.66
2017-09-08T00:37:04.207Z,11.66
2017-09-08T00:39:30.011Z,11.69
2017-09-08T00:41:55.810Z,11.82
2017-09-08T00:44:21.611Z,11.80
2017-09-08T00:46:47.356Z,11.89
2017-09-08T00:49:13.144Z,11.88
2017-09-08T00:51:38.912Z,11.89
2017-09-08T00:54:04.691Z,11.76
2017-09-08T00:56:30.479Z,11.76
2017-09-08T00:58:56.767Z,11.80
2017-09-08T01:01:22.667Z,11.75
2017-09-08T01:03:48.442Z,11.74
2017-09-08T01:06:14.222Z,11.69
2017-09-08T01:08:40.042Z,11.64
2017-09-08T01:11:05.855Z,11.56
2017-09-08T01:13:31.607Z,11.58
2017-09-08T01:15:57.437Z,11.52
2017-09-08T01:18:23.202Z,11.61
2017-09-08T01:20:48.959Z,11.69
2017-09-08T01:23:14.782Z,11.78
2017-09-08T01:25:40.530Z,11.74
2017-09-08T01:28:06.838Z,11.92
2017-09-08T01:30:32.674Z,11.70
2017-09-08T01:32:58.414Z,11.60
2017-09-08T01:35:24.190Z,11.58
2017-09-08T01:37:49.939Z,11.70
2017-09-08T01:40:15.703Z,11.07
2017-09-08T01:42:41.438Z,11.09
2017-09-08T01:45:07.235Z,11.00
2017-09-08T01:47:33.006Z,11.05
2017-09-08T01:49:58.855Z,11.06
2017-09-08T01:52:25.539Z,11.01
2017-09-08T01:54:51.350Z,11.09
2017-09-08T01:57:17.124Z,11.10
2017-09-08T01:59:42.874Z,10.91
2017-09-08T02:02:08.664Z,10.82
2017-09-08T02:04:34.426Z,10.98
2017-09-08T02:07:00.207Z,10.97
2017-09-08T02:09:25.956Z,11.04
2017-09-08T02:11:51.776Z,11.07
2017-09-08T02:14:17.548Z,11.03
2017-09-08T02:16:43.307Z,11.07
2017-09-08T02:19:09.166Z,11.08
2017-09-08T02:21:41.850Z,10.66
2017-09-08T02:24:07.658Z,10.27
2017-09-08T02:26:33.512Z,10.31
2017-09-08T02:28:59.301Z,10.35
2017-09-08T02:31:25.128Z,10.53
2017-09-08T02:33:51.075Z,10.73
2017-09-08T02:36:16.866Z,10.98
2017-09-08T02:38:42.716Z,11.08
2017-09-08T02:41:08.563Z,11.04
2017-09-08T02:43:34.366Z,11.05
2017-09-08T02:46:00.114Z,11.09
2017-09-08T02:48:25.903Z,11.05
2017-09-08T02:50:51.671Z,10.90
2017-09-08T02:53:17.428Z,10.83
2017-09-08T02:55:43.298Z,10.83
2017-09-08T02:58:09.091Z,10.99
2017-09-08T03:00:34.858Z,10.95
2017-09-08T03:03:00.598Z,11.10
2017-09-08T03:05:26.379Z,11.07
2017-09-08T03:07:52.231Z,11.10
2017-09-08T03:10:17.996Z,11.13
2017-09-08T03:12:43.882Z,11.08
2017-09-08T03:15:09.650Z,11.05
2017-09-08T03:17:35.441Z,11.15
2017-09-08T03:20:01.190Z,11.32
2017-09-08T03:22:26.959Z,11.35
2017-09-08T03:24:53.794Z,11.36
2017-09-08T03:27:19.639Z,11.36
2017-09-08T03:29:45.400Z,11.41
2017-09-08T03:32:11.168Z,11.49
2017-09-08T03:34:36.911Z,11.49
2017-09-08T03:37:02.758Z,11.47
2017-09-08T03:39:28.566Z,11.51
2017-09-08T03:41:54.348Z,11.51
2017-09-08T03:44:20.135Z,11.45
2017-09-08T03:46:45.910Z,11.58
2017-09-08T03:49:11.660Z,11.44
2017-09-08T03:51:37.427Z,11.57
2017-09-08T03:54:03.167Z,11.53
2017-09-08T03:56:29.026Z,11.51
2017-09-08T03:58:54.814Z,11.41
2017-09-08T04:01:20.655Z,11.47
2017-09-08T04:03:46.458Z,11.46
2017-09-08T04:06:12.211Z,11.38
2017-09-08T04:08:37.950Z,11.51
2017-09-08T04:11:03.751Z,11.45
2017-09-08T04:13:29.537Z,11.45
2017-09-08T04:15:55.286Z,11.26
2017-09-08T04:18:21.124Z,11.17
2017-09-08T04:20:46.979Z,11.16
2017-09-08T04:23:12.724Z,11.13
2017-09-08T04:25:38.551Z,11.13
2017-09-08T04:28:04.300Z,11.08
2017-09-08T04:30:30.048Z,11.28
2017-09-08T04:32:55.835Z,11.28
2017-09-08T04:35:21.591Z,11.34
2017-09-08T04:37:47.354Z,11.37
2017-09-08T04:40:13.200Z,11.41
2017-09-08T04:42:38.969Z,11.44
2017-09-08T04:45:04.734Z,11.45
2017-09-08T04:47:30.794Z,11.47
2017-09-08T04:49:56.641Z,11.42
2017-09-08T04:52:22.406Z,11.46
2017-09-08T04:54:48.167Z,11.38
2017-09-08T04:57:13.938Z,11.42
2017-09-08T04:59:39.703Z,11.53
2017-09-08T05:02:05.464Z,11.72
2017-09-08T05:04:31.206Z,11.74
2017-09-08T05:06:56.973Z,11.81
2017-09-08T05:09:22.734Z,11.85
2017-09-08T05:11:48.479Z,11.90
2017-09-08T05:14:14.335Z,11.94
2017-09-08T05:16:40.095Z,11.92
2017-09-08T05:19:05.923Z,11.94
2017-09-08T05:21:31.788Z,11.90
2017-09-08T05:23:58.116Z,11.94
2017-09-08T05:26:23.881Z,11.93
2017-09-08T05:28:49.662Z,11.88
2017-09-08T05:31:15.431Z,11.78
2017-09-08T05:33:41.163Z,11.77
2017-09-08T05:36:07.043Z,11.70
2017-09-08T05:38:32.789Z,11.68
2017-09-08T05:40:58.585Z,11.75
2017-09-08T05:43:24.346Z,11.62
2017-09-08T05:45:50.118Z,11.58
2017-09-08T05:48:15.854Z,11.66
2017-09-08T05:50:41.867Z,11.66
2017-09-08T05:53:07.731Z,11.67
2017-09-08T05:55:34.452Z,11.73
2017-09-08T05:58:00.208Z,11.82
2017-09-08T06:00:26.003Z,11.90
2017-09-08T06:02:51.752Z,12.05
2017-09-08T06:05:17.526Z,12.17
2017-09-08T06:07:43.299Z,12.14
2017-09-08T06:10:09.107Z,12.29
2017-09-08T06:12:34.900Z,12.39
2017-09-08T06:15:00.751Z,12.46
2017-09-08T06:17:26.543Z,12.47
2017-09-08T06:19:52.291Z,12.54
2017-09-08T06:22:18.930Z,12.45
2017-09-08T06:24:44.795Z,12.60
2017-09-08T06:27:10.544Z,12.65
2017-09-08T06:29:36.382Z,12.74
2017-09-08T06:32:02.158Z,12.74
2017-09-08T06:34:27.971Z,12.77
2017-09-08T06:36:53.732Z,12.70
2017-09-08T06:39:19.538Z,12.71
2017-09-08T06:41:45.275Z,12.95
2017-09-08T06:44:11.100Z,12.93
2017-09-08T06:46:36.876Z,12.85
2017-09-08T06:49:02.687Z,12.90
2017-09-08T06:51:28.435Z,12.84
2017-09-08T06:53:54.219Z,12.97
2017-09-08T06:56:19.971Z,13.09
2017-09-08T06:58:46.158Z,12.99
2017-09-08T07:01:12.016Z,12.99
2017-09-08T07:03:37.847Z,13.09
2017-09-08T07:06:03.671Z,13.07
2017-09-08T07:08:29.419Z,13.11
2017-09-08T07:10:55.208Z,13.14
2017-09-08T07:13:21.091Z,13.26
2017-09-08T07:15:46.871Z,13.35
2017-09-08T07:18:12.726Z,13.44
2017-09-08T07:20:38.487Z,13.33
2017-09-08T07:23:04.227Z,13.43
2017-09-08T07:25:30.007Z,13.72
2017-09-08T07:27:55.805Z,13.75
2017-09-08T07:30:21.543Z,13.82
2017-09-08T07:32:47.304Z,14.08
2017-09-08T07:35:13.111Z,14.18
2017-09-08T07:37:38.853Z,14.33
2017-09-08T07:40:04.750Z,14.71
2017-09-08T07:42:30.547Z,15.37
2017-09-08T07:44:56.294Z,15.56
2017-09-08T07:47:22.082Z,15.41
2017-09-08T07:49:47.835Z,15.15
2017-09-08T07:52:13.603Z,15.27
2017-09-08T07:54:39.460Z,14.95
2017-09-08T07:57:05.251Z,15.26
2017-09-08T07:59:31.003Z,15.16
2017-09-08T08:01:56.760Z,15.19
2017-09-08T08:04:22.582Z,15.03
2017-09-08T08:06:48.322Z,15.09
2017-09-08T08:09:14.069Z,15.04
2017-09-08T08:11:39.851Z,15.12
2017-09-08T08:14:05.675Z,15.34
2017-09-08T08:16:31.455Z,15.22
2017-09-08T08:18:57.191Z,15.02
2017-09-08T08:21:22.947Z,15.13
2017-09-08T08:23:48.912Z,15.56
2017-09-08T08:26:14.655Z,16.35
2017-09-08T08:28:40.486Z,16.10
2017-09-08T08:31:06.234Z,16.69
2017-09-08T08:33:32.015Z,17.01
2017-09-08T08:35:57.871Z,17.03
2017-09-08T08:38:23.659Z,17.12
2017-09-08T08:40:49.420Z,17.05
2017-09-08T08:43:15.211Z,17.49
2017-09-08T08:45:40.951Z,17.06
2017-09-08T08:48:06.728Z,17.63
2017-09-08T08:50:32.539Z,17.50
2017-09-08T08:52:58.320Z,17.41
2017-09-08T08:55:25.330Z,17.14
2017-09-08T08:57:51.139Z,17.52
2017-09-08T09:00:16.904Z,18.16
2017-09-08T09:02:42.712Z,17.49
2017-09-08T09:05:08.455Z,17.30
2017-09-08T09:07:34.186Z,17.31
2017-09-08T09:09:59.971Z,17.16
2017-09-08T09:12:25.727Z,16.72
2017-09-08T09:14:51.474Z,16.96
2017-09-08T09:17:17.322Z,17.05
2017-09-08T09:19:43.183Z,17.12
2017-09-08T09:22:08.930Z,16.80
2017-09-08T09:24:34.690Z,17.00
2017-09-08T09:27:00.484Z,17.27
2017-09-08T09:29:26.224Z,16.97
2017-09-08T09:31:51.974Z,16.98
2017-09-08T09:34:17.767Z,17.16
2017-09-08T09:36:43.551Z,17.24
2017-09-08T09:39:09.295Z,17.09
2017-09-08T09:41:35.070Z,17.34
2017-09-08T09:44:00.825Z,17.66
2017-09-08T09:46:26.602Z,17.68
2017-09-08T09:48:52.342Z,17.81
2017-09-08T09:51:18.374Z,17.75
2017-09-08T09:53:44.135Z,18.16
2017-09-08T09:56:09.882Z,19.23
2017-09-08T09:58:35.686Z,18.79
2017-09-08T10:01:01.444Z,19.07
2017-09-08T10:03:27.196Z,19.21
2017-09-08T10:05:53.267Z,18.75
2017-09-08T10:08:19.118Z,18.92
2017-09-08T10:10:44.863Z,18.77
2017-09-08T10:13:10.683Z,18.95
2017-09-08T10:15:36.431Z,19.04
2017-09-08T10:18:02.219Z,19.31
2017-09-08T10:20:27.966Z,19.76
2017-09-08T10:22:53.791Z,19.33
2017-09-08T10:25:19.591Z,18.89
2017-09-08T10:27:45.410Z,19.04
2017-09-08T10:30:11.191Z,18.41
2017-09-08T10:32:36.943Z,18.46
2017-09-08T10:35:02.748Z,18.34
2017-09-08T10:37:28.527Z,17.91
2017-09-08T10:39:54.420Z,17.95
2017-09-08T10:42:20.254Z,17.60
2017-09-08T10:44:46.018Z,17.69
2017-09-08T10:47:11.776Z,17.71
2017-09-08T10:49:37.555Z,17.36
2017-09-08T10:52:03.299Z,17.38
2017-09-08T10:54:29.110Z,17.69
2017-09-08T10:56:54.851Z,17.48
2017-09-08T10:59:20.658Z,17.38
2017-09-08T11:01:46.457Z,17.36
2017-09-08T11:04:12.239Z,17.33
2017-09-08T11:06:37.983Z,17.32
2017-09-08T11:09:03.900Z,17.37
2017-09-08T11:11:29.647Z,17.33
2017-09-08T11:13:55.423Z,17.15
2017-09-08T11:16:22.202Z,17.32
2017-09-08T11:18:47.949Z,17.37
2017-09-08T11:21:13.803Z,17.23
2017-09-08T11:23:39.574Z,17.47
2017-09-08T11:26:05.351Z,17.39
2017-09-08T11:28:31.094Z,17.49
2017-09-08T11:30:56.902Z,17.36
2017-09-08T11:33:28.707Z,17.46
2017-09-08T11:36:00.765Z,17.42
2017-09-08T11:38:26.517Z,17.54
2017-09-08T11:40:52.350Z,17.36
2017-09-08T11:43:18.202Z,17.26
2017-09-08T11:45:43.992Z,17.52
2017-09-08T11:48:09.779Z,17.56
2017-09-08T11:50:35.553Z,17.67
2017-09-08T11:53:01.353Z,17.90
2017-09-08T11:55:27.535Z,18.29
2017-09-08T11:57:53.327Z,18.16
2017-09-08T12:00:19.190Z,18.11
2017-09-08T12:02:44.986Z,18.28
2017-09-08T12:05:10.731Z,18.36
2017-09-08T12:07:36.504Z,18.04
2017-09-08T12:10:02.259Z,18.17
2017-09-08T12:12:28.067Z,17.95
2017-09-08T12:14:53.826Z,17.87
2017-09-08T12:17:19.623Z,17.77
2017-09-08T12:19:45.474Z,17.52
2017-09-08T12:22:11.271Z,17.43
2017-09-08T12:24:37.261Z,17.53
2017-09-08T12:27:03.032Z,17.53
2017-09-08T12:29:28.820Z,17.51
2017-09-08T12:31:54.563Z,17.67
2017-09-08T12:34:20.322Z,17.23
2017-09-08T12:36:46.150Z,17.06
2017-09-08T12:39:11.895Z,16.99
2017-09-08T12:41:37.726Z,17.03
2017-09-08T12:44:03.482Z,16.90
2017-09-08T12:46:29.235Z,16.92
2017-09-08T12:48:55.820Z,16.88
2017-09-08T12:51:22.606Z,16.95
2017-09-08T12:53:48.911Z,17.04
2017-09-08T12:56:14.678Z,16.92
2017-09-08T12:58:40.487Z,16.91
2017-09-08T13:01:06.346Z,17.15
2017-09-08T13:03:32.162Z,17.40
2017-09-08T13:05:58.034Z,17.38
2017-09-08T13:08:23.790Z,16.86
2017-09-08T13:10:49.623Z,17.38
2017-09-08T13:13:15.427Z,17.36
2017-09-08T13:15:41.179Z,17.49
2017-09-08T13:18:07.023Z,17.92
2017-09-08T13:20:32.791Z,17.71
2017-09-08T13:22:58.543Z,17.81
2017-09-08T13:25:24.336Z,17.77
2017-09-08T13:27:50.118Z,18.05
2017-09-08T13:30:15.906Z,17.76
2017-09-08T13:32:41.671Z,17.70
2017-09-08T13:35:07.416Z,17.64
2017-09-08T13:37:33.195Z,17.70
2017-09-08T13:39:58.943Z,17.47
2017-09-08T13:42:24.807Z,17.60
2017-09-08T13:44:50.552Z,17.57
2017-09-08T13:47:16.291Z,17.41
2017-09-08T13:49:42.087Z,17.55
2017-09-08T13:52:07.954Z,17.55
2017-09-08T13:54:33.782Z,17.61
2017-09-08T13:56:59.548Z,17.58
2017-09-08T13:59:25.300Z,17.71
2017-09-08T14:01:51.173Z,17.17
2017-09-08T14:04:16.987Z,17.32
2017-09-08T14:06:42.727Z,17.33
2017-09-08T14:09:08.496Z,17.17
2017-09-08T14:11:34.382Z,17.37
2017-09-08T14:14:00.187Z,17.13
2017-09-08T14:16:25.983Z,17.14
2017-09-08T14:18:51.839Z,17.16
2017-09-08T14:21:17.686Z,17.33
2017-09-08T14:23:43.483Z,17.30
2017-09-08T14:26:09.276Z,17.32
2017-09-08T14:28:35.106Z,17.49
2017-09-08T14:31:00.923Z,17.40
2017-09-08T14:33:26.658Z,18.07
2017-09-08T14:35:52.435Z,18.45
2017-09-08T14:38:18.254Z,18.26
2017-09-08T14:40:44.115Z,18.29
2017-09-08T14:43:09.883Z,18.44
2017-09-08T14:45:35.627Z,18.75
2017-09-08T14:48:01.434Z,18.27
2017-09-08T14:50:27.263Z,18.46
2017-09-08T14:52:53.043Z,18.09
2017-09-08T14:55:19.100Z,18.27
2017-09-08T14:57:44.980Z,18.59
2017-09-08T15:00:10.731Z,18.34
2017-09-08T15:02:36.571Z,18.10
2017-09-08T15:05:02.347Z,18.18
2017-09-08T15:07:28.083Z,17.94
2017-09-08T15:09:53.819Z,18.06
2017-09-08T15:12:19.620Z,18.20
2017-09-08T15:14:45.372Z,18.05
2017-09-08T15:17:11.131Z,18.03
2017-09-08T15:19:36.962Z,18.18
2017-09-08T15:22:02.721Z,18.07
2017-09-08T15:24:28.484Z,18.19
2017-09-08T15:26:54.275Z,17.67
2017-09-08T15:29:20.024Z,17.82
2017-09-08T15:51:43.318Z,17.09
2017-09-08T15:54:32.275Z,17.03
2017-09-08T16:13:43.220Z,17.00
2017-09-08T16:16:32.124Z,17.00
2017-09-08T16:35:42.950Z,16.80
2017-09-08T16:38:32.300Z,16.84
2017-09-08T16:41:29.638Z,16.90
2017-09-08T16:44:26.866Z,16.94
2017-09-08T16:47:24.315Z,16.88
2017-09-08T16:50:21.499Z,16.86
2017-09-08T17:09:31.971Z,16.52
2017-09-08T17:22:00.675Z,16.26
2017-09-08T17:44:25.113Z,15.68
2017-09-08T17:47:14.442Z,15.72
2017-09-08T17:50:11.820Z,15.64
2017-09-08T17:53:08.954Z,15.55
2017-09-08T18:06:05.959Z,15.25
2017-09-08T18:08:55.766Z,15.30
2017-09-08T18:28:05.895Z,15.33
2017-09-08T18:30:54.846Z,15.26
2017-09-08T18:50:06.491Z,15.19
2017-09-08T18:52:55.800Z,15.15
2017-09-08T19:12:06.299Z,14.84
2017-09-08T19:14:55.678Z,14.85
2017-09-08T19:17:53.235Z,14.87
2017-09-08T19:20:50.582Z,14.88
2017-09-08T19:23:47.611Z,14.83
2017-09-08T19:33:36.859Z,14.73
2017-09-08T19:53:11.754Z,14.60
2017-09-08T20:12:34.135Z,14.57
2017-09-08T20:15:31.400Z,14.54
2017-09-08T20:17:57.178Z,14.49
2017-09-08T20:20:46.142Z,14.53
2017-09-08T20:39:56.946Z,14.41
2017-09-08T20:42:45.971Z,14.36
2017-09-08T20:45:43.823Z,14.47
2017-09-08T21:01:34.388Z,14.38
2017-09-08T21:04:23.544Z,14.35
2017-09-08T21:23:35.427Z,14.09
2017-09-08T21:26:24.251Z,14.05
2017-09-08T21:45:35.888Z,13.88
2017-09-08T21:48:24.931Z,13.73
2017-09-08T21:51:21.787Z,13.63
2017-09-08T22:07:11.987Z,13.56
2017-09-08T22:10:01.363Z,13.62
2017-09-08T22:12:58.322Z,13.60
2017-09-08T22:15:55.298Z,13.61
2017-09-08T22:18:52.331Z,13.59
2017-09-08T22:21:49.698Z,13.44
2017-09-08T22:24:47.023Z,13.49
2017-09-08T22:27:44.483Z,13.53
2017-09-08T22:46:52.954Z,13.60
2017-09-08T22:49:49.687Z,13.55
2017-09-08T22:52:15.486Z,13.56
2017-09-08T22:55:04.850Z,13.55
2017-09-08T23:14:16.226Z,13.56
2017-09-08T23:17:05.503Z,13.49
2017-09-08T23:20:02.504Z,13.64
2017-09-08T23:23:00.402Z,13.57
2017-09-08T23:35:45.313Z,13.50
2017-09-08T23:38:34.943Z,13.56
2017-09-08T23:41:32.212Z,13.46
2017-09-08T23:44:29.299Z,13.40
2017-09-08T23:47:26.518Z,13.29
2017-09-08T23:57:18.023Z,13.13
